sensor_id;sensor_type;location;lat;lon;timestamp;pressure;altitude;pressure_sealevel;temperature;humidity
5966;BME280;3009;43.224;27.976;2023-05-10T00:02:01;101032.44;;;7.40;100.00
5966;BME280;3009;43.224;27.976;2023-05-10T00:04:29;101029.78;;;7.40;100.00
5966;BME280;3009;43.224;27.976;2023-05-10T00:07:00;101030.31;;;7.37;100.00
5966;BME280;3009;43.224;27.976;2023-05-10T00:09:28;101026.31;;;7.34;100.00
5966;BME280;3009;43.224;27.976;2023-05-10T00:11:56;101015.66;;;7.34;100.00
5966;BME280;3009;43.224;27.976;2023-05-10T00:14:25;101022.06;;;7.38;100.00
5966;BME280;3009;43.224;27.976;2023-05-10T00:16:54;101020.72;;;7.36;100.00
5966;BME280;3009;43.224;27.976;2023-05-10T00:19:22;101017.22;;;7.40;100.00
5966;BME280;3009;43.224;27.976;2023-05-10T00:21:50;101017.75;;;7.42;100.00
5966;BME280;3009;43.224;27.976;2023-05-10T00:24:20;101016.94;;;7.47;100.00
5966;BME280;3009;43.224;27.976;2023-05-10T00:26:48;101018.00;;;7.51;100.00
5966;BME280;3009;43.224;27.976;2023-05-10T00:29:17;101012.41;;;7.48;100.00
5966;BME280;3009;43.224;27.976;2023-05-10T00:31:45;101020.97;;;7.44;100.00
5966;BME280;3009;43.224;27.976;2023-05-10T00:34:13;101016.97;;;7.42;100.00
5966;BME280;3009;43.224;27.976;2023-05-10T00:36:42;101012.16;;;7.39;100.00
5966;BME280;3009;43.224;27.976;2023-05-10T00:39:10;101015.63;;;7.39;100.00
5966;BME280;3009;43.224;27.976;2023-05-10T00:41:40;101013.22;;;7.48;100.00
5966;BME280;3009;43.224;27.976;2023-05-10T00:44:08;101015.06;;;7.42;100.00
5966;BME280;3009;43.224;27.976;2023-05-10T00:46:37;101013.75;;;7.45;100.00
5966;BME280;3009;43.224;27.976;2023-05-10T00:49:06;101013.50;;;7.41;100.00
5966;BME280;3009;43.224;27.976;2023-05-10T00:51:34;101010.28;;;7.39;100.00
5966;BME280;3009;43.224;27.976;2023-05-10T00:54:03;101009.75;;;7.42;100.00
5966;BME280;3009;43.224;27.976;2023-05-10T00:56:32;101012.44;;;7.37;100.00
5966;BME280;3009;43.224;27.976;2023-05-10T00:59:01;101016.97;;;7.37;100.00
5966;BME280;3009;43.224;27.976;2023-05-10T01:01:30;101016.97;;;7.37;100.00
5966;BME280;3009;43.224;27.976;2023-05-10T01:03:59;101008.97;;;7.32;100.00
5966;BME280;3009;43.224;27.976;2023-05-10T01:06:27;101009.78;;;7.27;100.00
5966;BME280;3009;43.224;27.976;2023-05-10T01:08:56;101005.00;;;7.24;100.00
5966;BME280;3009;43.224;27.976;2023-05-10T01:11:24;100998.59;;;7.25;100.00
5966;BME280;3009;43.224;27.976;2023-05-10T01:13:55;101002.56;;;7.27;100.00
5966;BME280;3009;43.224;27.976;2023-05-10T01:16:26;101002.34;;;7.19;100.00
5966;BME280;3009;43.224;27.976;2023-05-10T01:18:55;101003.44;;;7.13;100.00
5966;BME280;3009;43.224;27.976;2023-05-10T01:21:29;101004.75;;;7.10;100.00
5966;BME280;3009;43.224;27.976;2023-05-10T01:33:18;101002.06;;;7.15;100.00
5966;BME280;3009;43.224;27.976;2023-05-10T01:35:52;101007.69;;;7.19;100.00
5966;BME280;3009;43.224;27.976;2023-05-10T01:38:29;101005.28;;;7.17;100.00
5966;BME280;3009;43.224;27.976;2023-05-10T01:41:08;101004.22;;;7.13;100.00
5966;BME280;3009;43.224;27.976;2023-05-10T01:43:47;101007.94;;;7.12;100.00
5966;BME280;3009;43.224;27.976;2023-05-10T01:46:26;101007.41;;;7.10;100.00
5966;BME280;3009;43.224;27.976;2023-05-10T01:48:58;101003.94;;;7.09;100.00
5966;BME280;3009;43.224;27.976;2023-05-10T01:51:33;101003.69;;;7.01;100.00
5966;BME280;3009;43.224;27.976;2023-05-10T01:54:04;100998.91;;;6.98;100.00
5966;BME280;3009;43.224;27.976;2023-05-10T01:56:34;100998.88;;;6.92;100.00
5966;BME280;3009;43.224;27.976;2023-05-10T01:59:06;101000.22;;;6.95;100.00
5966;BME280;3009;43.224;27.976;2023-05-10T02:01:37;101005.28;;;6.97;100.00
5966;BME280;3009;43.224;27.976;2023-05-10T02:04:08;101003.94;;;7.04;100.00
5966;BME280;3009;43.224;27.976;2023-05-10T02:06:38;100999.69;;;6.98;100.00
5966;BME280;3009;43.224;27.976;2023-05-10T02:09:09;101009.03;;;6.90;100.00
5966;BME280;3009;43.224;27.976;2023-05-10T02:11:39;101006.38;;;6.90;100.00
5966;BME280;3009;43.224;27.976;2023-05-10T02:14:11;101002.09;;;6.89;100.00
5966;BME280;3009;43.224;27.976;2023-05-10T02:16:40;101006.88;;;6.82;100.00
5966;BME280;3009;43.224;27.976;2023-05-10T02:19:12;100998.91;;;6.87;100.00
5966;BME280;3009;43.224;27.976;2023-05-10T02:21:43;101002.66;;;6.91;100.00
5966;BME280;3009;43.224;27.976;2023-05-10T02:24:14;101001.03;;;6.85;100.00
5966;BME280;3009;43.224;27.976;2023-05-10T02:26:44;101006.88;;;6.82;100.00
5966;BME280;3009;43.224;27.976;2023-05-10T02:29:14;101007.69;;;6.88;100.00
5966;BME280;3009;43.224;27.976;2023-05-10T02:31:43;101006.09;;;6.87;100.00
5966;BME280;3009;43.224;27.976;2023-05-10T02:34:13;101014.38;;;6.90;100.00
5966;BME280;3009;43.224;27.976;2023-05-10T02:36:42;101007.97;;;6.86;100.00
5966;BME280;3009;43.224;27.976;2023-05-10T02:39:11;101006.09;;;6.82;100.00
5966;BME280;3009;43.224;27.976;2023-05-10T02:41:42;101008.75;;;6.87;100.00
5966;BME280;3009;43.224;27.976;2023-05-10T02:44:14;100995.69;;;6.85;100.00
5966;BME280;3009;43.224;27.976;2023-05-10T02:46:43;101003.69;;;6.85;100.00
5966;BME280;3009;43.224;27.976;2023-05-10T02:49:13;101010.09;;;6.84;100.00
5966;BME280;3009;43.224;27.976;2023-05-10T02:51:49;101014.88;;;6.82;100.00
5966;BME280;3009;43.224;27.976;2023-05-10T02:54:20;101012.22;;;6.82;100.00
5966;BME280;3009;43.224;27.976;2023-05-10T02:56:56;101013.31;;;6.81;100.00
5966;BME280;3009;43.224;27.976;2023-05-10T02:59:26;101008.50;;;6.83;100.00
5966;BME280;3009;43.224;27.976;2023-05-10T03:01:54;101011.41;;;6.87;100.00
5966;BME280;3009;43.224;27.976;2023-05-10T03:04:24;101013.56;;;6.90;100.00
5966;BME280;3009;43.224;27.976;2023-05-10T03:06:53;101010.38;;;6.93;100.00
5966;BME280;3009;43.224;27.976;2023-05-10T03:09:21;101015.97;;;6.97;100.00
5966;BME280;3009;43.224;27.976;2023-05-10T03:11:56;101010.09;;;7.10;100.00
5966;BME280;3009;43.224;27.976;2023-05-10T03:14:38;101015.94;;;7.17;100.00
5966;BME280;3009;43.224;27.976;2023-05-10T03:17:14;101014.78;;;7.54;100.00
5966;BME280;3009;43.224;27.976;2023-05-10T03:19:48;101020.03;;;7.85;100.00
5966;BME280;3009;43.224;27.976;2023-05-10T03:22:26;101006.09;;;8.43;100.00
5966;BME280;3009;43.224;27.976;2023-05-10T03:25:02;101000.28;;;9.05;100.00
5966;BME280;3009;43.224;27.976;2023-05-10T03:27:34;101004.44;;;9.46;100.00
5966;BME280;3009;43.224;27.976;2023-05-10T03:30:05;100992.44;;;9.86;100.00
5966;BME280;3009;43.224;27.976;2023-05-10T03:32:33;101001.16;;;10.54;100.00
5966;BME280;3009;43.224;27.976;2023-05-10T03:35:07;100999.09;;;10.65;100.00
5966;BME280;3009;43.224;27.976;2023-05-10T03:37:36;101002.53;;;11.17;100.00
5966;BME280;3009;43.224;27.976;2023-05-10T03:40:06;101001.69;;;11.17;100.00
5966;BME280;3009;43.224;27.976;2023-05-10T03:42:35;101006.63;;;11.57;100.00
5966;BME280;3009;43.224;27.976;2023-05-10T03:45:04;101003.72;;;11.81;99.29
5966;BME280;3009;43.224;27.976;2023-05-10T03:47:32;101003.84;;;12.26;93.20
5966;BME280;3009;43.224;27.976;2023-05-10T03:50:01;101008.81;;;12.55;90.31
5966;BME280;3009;43.224;27.976;2023-05-10T03:52:31;101011.00;;;12.99;86.52
5966;BME280;3009;43.224;27.976;2023-05-10T03:54:59;101014.06;;;13.06;84.88
5966;BME280;3009;43.224;27.976;2023-05-10T03:57:29;101009.56;;;13.33;83.78
5966;BME280;3009;43.224;27.976;2023-05-10T03:59:58;101025.13;;;13.36;83.94
5966;BME280;3009;43.224;27.976;2023-05-10T04:02:26;101021.97;;;13.11;82.44
5966;BME280;3009;43.224;27.976;2023-05-10T04:04:55;101013.41;;;13.40;83.86
5966;BME280;3009;43.224;27.976;2023-05-10T04:07:23;101013.41;;;13.89;80.02
5966;BME280;3009;43.224;27.976;2023-05-10T04:09:53;101014.72;;;14.35;75.92
5966;BME280;3009;43.224;27.976;2023-05-10T04:12:21;101007.09;;;14.55;73.47
5966;BME280;3009;43.224;27.976;2023-05-10T04:14:50;101007.78;;;15.17;71.25
5966;BME280;3009;43.224;27.976;2023-05-10T04:17:18;101007.16;;;15.50;69.71
5966;BME280;3009;43.224;27.976;2023-05-10T04:19:47;101016.25;;;15.75;67.00
5966;BME280;3009;43.224;27.976;2023-05-10T04:22:15;101017.09;;;16.72;62.40
5966;BME280;3009;43.224;27.976;2023-05-10T04:24:44;101014.69;;;15.65;65.00
5966;BME280;3009;43.224;27.976;2023-05-10T04:27:14;101013.59;;;14.89;67.72
5966;BME280;3009;43.224;27.976;2023-05-10T04:29:42;101018.69;;;14.56;72.02
5966;BME280;3009;43.224;27.976;2023-05-10T04:32:10;101014.34;;;15.07;69.57
5966;BME280;3009;43.224;27.976;2023-05-10T04:34:39;101015.22;;;15.20;67.69
5966;BME280;3009;43.224;27.976;2023-05-10T04:37:07;101015.91;;;15.08;70.83
5966;BME280;3009;43.224;27.976;2023-05-10T04:39:35;101019.13;;;15.79;67.42
5966;BME280;3009;43.224;27.976;2023-05-10T04:42:07;101011.88;;;15.62;66.70
5966;BME280;3009;43.224;27.976;2023-05-10T04:44:36;101013.00;;;15.90;66.95
5966;BME280;3009;43.224;27.976;2023-05-10T04:47:05;101014.84;;;16.20;62.68
5966;BME280;3009;43.224;27.976;2023-05-10T04:49:35;101011.75;;;15.58;65.89
5966;BME280;3009;43.224;27.976;2023-05-10T04:52:04;101014.47;;;16.63;59.28
5966;BME280;3009;43.224;27.976;2023-05-10T04:54:32;101012.28;;;16.02;63.25
5966;BME280;3009;43.224;27.976;2023-05-10T04:57:01;101018.50;;;17.36;58.18
5966;BME280;3009;43.224;27.976;2023-05-10T04:59:29;101022.81;;;15.65;62.07
5966;BME280;3009;43.224;27.976;2023-05-10T05:01:59;101017.44;;;15.27;63.61
5966;BME280;3009;43.224;27.976;2023-05-10T05:04:28;101017.94;;;16.85;60.23
5966;BME280;3009;43.224;27.976;2023-05-10T05:06:57;101018.25;;;18.03;55.65
5966;BME280;3009;43.224;27.976;2023-05-10T05:09:26;101004.78;;;17.95;52.96
5966;BME280;3009;43.224;27.976;2023-05-10T05:11:54;101018.59;;;17.77;54.14
5966;BME280;3009;43.224;27.976;2023-05-10T05:14:23;101005.69;;;17.99;52.96
5966;BME280;3009;43.224;27.976;2023-05-10T05:16:52;101011.47;;;18.38;52.50
5966;BME280;3009;43.224;27.976;2023-05-10T05:19:21;101011.47;;;17.97;52.76
5966;BME280;3009;43.224;27.976;2023-05-10T05:21:50;101018.16;;;16.25;59.13
5966;BME280;3009;43.224;27.976;2023-05-10T05:24:18;101022.44;;;17.27;56.11
5966;BME280;3009;43.224;27.976;2023-05-10T05:26:46;101021.22;;;16.57;59.00
5966;BME280;3009;43.224;27.976;2023-05-10T05:29:15;101030.34;;;15.89;61.15
5966;BME280;3009;43.224;27.976;2023-05-10T05:31:43;101020.63;;;15.20;63.82
5966;BME280;3009;43.224;27.976;2023-05-10T05:34:12;101024.00;;;15.08;66.18
5966;BME280;3009;43.224;27.976;2023-05-10T05:36:41;101018.47;;;15.04;66.46
5966;BME280;3009;43.224;27.976;2023-05-10T05:39:10;101030.09;;;15.73;63.04
5966;BME280;3009;43.224;27.976;2023-05-10T05:41:38;101023.38;;;15.50;66.12
5966;BME280;3009;43.224;27.976;2023-05-10T05:44:06;101022.94;;;15.39;63.84
5966;BME280;3009;43.224;27.976;2023-05-10T05:46:35;101028.22;;;15.65;64.27
5966;BME280;3009;43.224;27.976;2023-05-10T05:49:03;101036.09;;;16.30;61.09
5966;BME280;3009;43.224;27.976;2023-05-10T05:51:31;101017.81;;;16.27;58.63
5966;BME280;3009;43.224;27.976;2023-05-10T05:54:02;101045.16;;;16.34;59.97
5966;BME280;3009;43.224;27.976;2023-05-10T05:56:31;101031.06;;;16.62;58.23
5966;BME280;3009;43.224;27.976;2023-05-10T05:58:59;101024.81;;;15.86;64.08
5966;BME280;3009;43.224;27.976;2023-05-10T06:01:28;101030.19;;;15.56;64.42
5966;BME280;3009;43.224;27.976;2023-05-10T06:03:56;101032.88;;;15.94;63.55
5966;BME280;3009;43.224;27.976;2023-05-10T06:06:24;101021.41;;;16.19;61.67
5966;BME280;3009;43.224;27.976;2023-05-10T06:08:54;101022.22;;;16.53;62.71
5966;BME280;3009;43.224;27.976;2023-05-10T06:11:24;101040.31;;;17.65;57.27
5966;BME280;3009;43.224;27.976;2023-05-10T06:13:53;101030.09;;;16.45;59.84
5966;BME280;3009;43.224;27.976;2023-05-10T06:16:21;101042.50;;;17.13;56.07
5966;BME280;3009;43.224;27.976;2023-05-10T06:18:50;101044.09;;;16.47;58.59
5966;BME280;3009;43.224;27.976;2023-05-10T06:21:18;101058.28;;;16.99;57.71
5966;BME280;3009;43.224;27.976;2023-05-10T06:23:46;101039.00;;;16.46;59.74
5966;BME280;3009;43.224;27.976;2023-05-10T06:26:15;101044.63;;;15.60;63.85
5966;BME280;3009;43.224;27.976;2023-05-10T06:28:45;101042.13;;;15.85;63.71
5966;BME280;3009;43.224;27.976;2023-05-10T06:31:13;101036.13;;;16.63;60.25
5966;BME280;3009;43.224;27.976;2023-05-10T06:33:41;101039.34;;;17.11;57.14
5966;BME280;3009;43.224;27.976;2023-05-10T06:36:10;101036.91;;;17.80;55.27
5966;BME280;3009;43.224;27.976;2023-05-10T06:38:38;101039.88;;;16.92;58.31
5966;BME280;3009;43.224;27.976;2023-05-10T06:41:06;101037.25;;;17.42;56.56
5966;BME280;3009;43.224;27.976;2023-05-10T06:43:35;101051.38;;;17.47;56.02
5966;BME280;3009;43.224;27.976;2023-05-10T06:46:08;101037.34;;;15.90;61.03
5966;BME280;3009;43.224;27.976;2023-05-10T06:48:36;101043.44;;;16.29;59.15
5966;BME280;3009;43.224;27.976;2023-05-10T06:51:04;101045.63;;;16.91;58.36
5966;BME280;3009;43.224;27.976;2023-05-10T06:53:33;101048.16;;;15.52;60.58
5966;BME280;3009;43.224;27.976;2023-05-10T06:56:01;101055.03;;;17.06;57.42
5966;BME280;3009;43.224;27.976;2023-05-10T06:58:30;101047.53;;;15.85;60.16
5966;BME280;3009;43.224;27.976;2023-05-10T07:01:02;101045.47;;;16.54;58.63
5966;BME280;3009;43.224;27.976;2023-05-10T07:03:33;101037.03;;;16.55;60.03
5966;BME280;3009;43.224;27.976;2023-05-10T07:06:02;101055.78;;;16.94;59.04
5966;BME280;3009;43.224;27.976;2023-05-10T07:08:31;101047.72;;;17.06;56.71
5966;BME280;3009;43.224;27.976;2023-05-10T07:11:00;101054.25;;;16.51;57.33
5966;BME280;3009;43.224;27.976;2023-05-10T07:13:30;101057.22;;;15.09;63.27
5966;BME280;3009;43.224;27.976;2023-05-10T07:15:59;101045.84;;;14.68;67.09
5966;BME280;3009;43.224;27.976;2023-05-10T07:18:28;101052.81;;;15.81;65.08
5966;BME280;3009;43.224;27.976;2023-05-10T07:20:59;101056.31;;;17.33;57.97
5966;BME280;3009;43.224;27.976;2023-05-10T07:23:27;101065.69;;;15.84;62.94
5966;BME280;3009;43.224;27.976;2023-05-10T07:25:56;101053.53;;;15.22;67.36
5966;BME280;3009;43.224;27.976;2023-05-10T07:28:25;101051.66;;;14.00;74.14
5966;BME280;3009;43.224;27.976;2023-05-10T07:30:53;101062.34;;;13.65;79.55
5966;BME280;3009;43.224;27.976;2023-05-10T07:33:22;101056.88;;;13.88;77.84
5966;BME280;3009;43.224;27.976;2023-05-10T07:35:50;101059.38;;;13.84;78.23
5966;BME280;3009;43.224;27.976;2023-05-10T07:38:20;101069.72;;;13.51;81.90
5966;BME280;3009;43.224;27.976;2023-05-10T07:40:48;101074.66;;;14.06;78.82
5966;BME280;3009;43.224;27.976;2023-05-10T08:48:07;101102.28;;;14.29;79.96
5966;BME280;3009;43.224;27.976;2023-05-10T08:50:36;101110.44;;;14.47;78.34
5966;BME280;3009;43.224;27.976;2023-05-10T08:53:09;101113.13;;;13.80;85.38
5966;BME280;3009;43.224;27.976;2023-05-10T08:55:38;101106.75;;;13.76;85.00
5966;BME280;3009;43.224;27.976;2023-05-10T08:58:07;101107.84;;;14.24;82.86
5966;BME280;3009;43.224;27.976;2023-05-10T09:00:36;101103.81;;;13.95;85.50
5966;BME280;3009;43.224;27.976;2023-05-10T09:03:06;101099.72;;;13.98;83.03
5966;BME280;3009;43.224;27.976;2023-05-10T09:05:36;101105.91;;;14.07;80.48
5966;BME280;3009;43.224;27.976;2023-05-10T09:08:05;101106.81;;;13.31;86.15
5966;BME280;3009;43.224;27.976;2023-05-10T09:10:35;101117.03;;;13.65;84.57
5966;BME280;3009;43.224;27.976;2023-05-10T09:13:03;101100.91;;;14.41;80.14
5966;BME280;3009;43.224;27.976;2023-05-10T09:15:32;101106.00;;;14.51;78.10
5966;BME280;3009;43.224;27.976;2023-05-10T09:18:01;101097.19;;;14.19;77.32
5966;BME280;3009;43.224;27.976;2023-05-10T09:20:32;101095.09;;;13.98;78.36
5966;BME280;3009;43.224;27.976;2023-05-10T09:23:00;101097.91;;;13.85;76.47
5966;BME280;3009;43.224;27.976;2023-05-10T09:25:29;101094.06;;;13.68;75.89
5966;BME280;3009;43.224;27.976;2023-05-10T09:28:00;101093.38;;;13.31;78.15
5966;BME280;3009;43.224;27.976;2023-05-10T09:30:29;101090.03;;;13.97;78.12
5966;BME280;3009;43.224;27.976;2023-05-10T09:32:59;101096.47;;;14.97;73.23
5966;BME280;3009;43.224;27.976;2023-05-10T09:35:29;101095.00;;;14.21;73.37
5966;BME280;3009;43.224;27.976;2023-05-10T09:38:01;101106.75;;;14.43;70.87
5966;BME280;3009;43.224;27.976;2023-05-10T09:40:31;101097.41;;;14.84;67.17
5966;BME280;3009;43.224;27.976;2023-05-10T09:43:01;101101.41;;;14.78;68.37
5966;BME280;3009;43.224;27.976;2023-05-10T09:45:30;101104.53;;;14.53;66.05
5966;BME280;3009;43.224;27.976;2023-05-10T09:48:03;101115.66;;;14.52;69.55
5966;BME280;3009;43.224;27.976;2023-05-10T09:50:32;101106.88;;;14.03;71.20
5966;BME280;3009;43.224;27.976;2023-05-10T09:53:03;101102.06;;;13.91;72.48
5966;BME280;3009;43.224;27.976;2023-05-10T09:55:39;101098.91;;;13.97;74.39
5966;BME280;3009;43.224;27.976;2023-05-10T09:58:08;101098.56;;;13.90;73.23
5966;BME280;3009;43.224;27.976;2023-05-10T10:00:39;101104.72;;;14.66;70.17
5966;BME280;3009;43.224;27.976;2023-05-10T10:03:12;101104.69;;;13.42;74.10
5966;BME280;3009;43.224;27.976;2023-05-10T10:05:42;101093.19;;;13.99;74.09
5966;BME280;3009;43.224;27.976;2023-05-10T10:08:13;101099.03;;;14.67;70.01
5966;BME280;3009;43.224;27.976;2023-05-10T10:10:41;101102.47;;;14.42;68.14
5966;BME280;3009;43.224;27.976;2023-05-10T10:13:13;101102.59;;;14.19;69.51
5966;BME280;3009;43.224;27.976;2023-05-10T10:15:42;101112.78;;;14.40;67.77
5966;BME280;3009;43.224;27.976;2023-05-10T10:18:13;101091.31;;;14.08;67.57
5966;BME280;3009;43.224;27.976;2023-05-10T10:20:42;101101.31;;;14.08;67.42
5966;BME280;3009;43.224;27.976;2023-05-10T10:23:12;101108.34;;;13.77;71.43
5966;BME280;3009;43.224;27.976;2023-05-10T10:25:44;101113.47;;;13.88;69.26
5966;BME280;3009;43.224;27.976;2023-05-10T10:28:22;101117.16;;;13.60;70.16
5966;BME280;3009;43.224;27.976;2023-05-10T10:30:54;101111.22;;;13.27;73.98
5966;BME280;3009;43.224;27.976;2023-05-10T10:33:39;101125.31;;;13.46;73.33
5966;BME280;3009;43.224;27.976;2023-05-10T10:36:08;101111.28;;;13.58;71.85
5966;BME280;3009;43.224;27.976;2023-05-10T10:38:54;101123.44;;;13.87;73.15
5966;BME280;3009;43.224;27.976;2023-05-10T10:41:33;101113.59;;;13.82;72.84
5966;BME280;3009;43.224;27.976;2023-05-10T10:44:34;101103.44;;;14.28;71.93
5966;BME280;3009;43.224;27.976;2023-05-10T10:47:22;101114.47;;;13.60;74.20
5966;BME280;3009;43.224;27.976;2023-05-10T10:49:52;101116.72;;;13.67;74.73
5966;BME280;3009;43.224;27.976;2023-05-10T10:52:34;101104.28;;;13.97;72.62
5966;BME280;3009;43.224;27.976;2023-05-10T10:55:06;101107.25;;;14.53;67.51
5966;BME280;3009;43.224;27.976;2023-05-10T10:57:44;101107.13;;;14.85;65.58
5966;BME280;3009;43.224;27.976;2023-05-10T11:00:29;101101.47;;;15.34;65.26
5966;BME280;3009;43.224;27.976;2023-05-10T11:02:59;101114.91;;;14.95;65.98
5966;BME280;3009;43.224;27.976;2023-05-10T11:05:40;101122.66;;;14.53;66.54
5966;BME280;3009;43.224;27.976;2023-05-10T11:08:19;101104.53;;;14.27;70.51
5966;BME280;3009;43.224;27.976;2023-05-10T11:11:03;101110.94;;;14.66;69.32
5966;BME280;3009;43.224;27.976;2023-05-10T11:13:37;101111.19;;;14.39;68.96
5966;BME280;3009;43.224;27.976;2023-05-10T11:16:14;101111.63;;;13.65;69.44
5966;BME280;3009;43.224;27.976;2023-05-10T11:19:02;101105.28;;;14.10;68.77
5966;BME280;3009;43.224;27.976;2023-05-10T11:21:32;101105.63;;;14.26;66.97
5966;BME280;3009;43.224;27.976;2023-05-10T11:24:01;101104.22;;;14.55;68.51
5966;BME280;3009;43.224;27.976;2023-05-10T11:26:35;101109.19;;;14.62;68.38
5966;BME280;3009;43.224;27.976;2023-05-10T11:29:04;101108.38;;;14.61;66.94
5966;BME280;3009;43.224;27.976;2023-05-10T11:31:32;101109.22;;;13.95;69.10
5966;BME280;3009;43.224;27.976;2023-05-10T11:34:01;101110.19;;;13.59;73.56
5966;BME280;3009;43.224;27.976;2023-05-10T11:36:33;101105.28;;;14.19;71.50
5966;BME280;3009;43.224;27.976;2023-05-10T11:39:02;101100.19;;;14.00;72.89
5966;BME280;3009;43.224;27.976;2023-05-10T11:41:31;101109.69;;;13.97;71.34
5966;BME280;3009;43.224;27.976;2023-05-10T11:44:01;101111.38;;;13.76;72.38
5966;BME280;3009;43.224;27.976;2023-05-10T11:46:30;101108.31;;;13.37;71.43
5966;BME280;3009;43.224;27.976;2023-05-10T11:49:00;101094.75;;;13.20;74.60
5966;BME280;3009;43.224;27.976;2023-05-10T11:51:33;101100.00;;;13.02;75.15
5966;BME280;3009;43.224;27.976;2023-05-10T11:54:06;101090.63;;;13.22;71.67
5966;BME280;3009;43.224;27.976;2023-05-10T11:56:34;101097.06;;;13.35;72.79
5966;BME280;3009;43.224;27.976;2023-05-10T11:59:04;101102.19;;;13.23;77.38
5966;BME280;3009;43.224;27.976;2023-05-10T12:01:33;101095.03;;;13.18;77.18
5966;BME280;3009;43.224;27.976;2023-05-10T12:04:02;101100.34;;;13.55;74.08
5966;BME280;3009;43.224;27.976;2023-05-10T12:06:37;101091.91;;;13.88;71.99
5966;BME280;3009;43.224;27.976;2023-05-10T12:09:08;101097.47;;;13.28;72.34
5966;BME280;3009;43.224;27.976;2023-05-10T12:11:38;101091.06;;;13.16;72.43
5966;BME280;3009;43.224;27.976;2023-05-10T12:14:11;101104.38;;;13.35;73.56
5966;BME280;3009;43.224;27.976;2023-05-10T12:16:39;101093.38;;;13.62;70.21
5966;BME280;3009;43.224;27.976;2023-05-10T12:19:08;101098.47;;;13.64;69.51
5966;BME280;3009;43.224;27.976;2023-05-10T12:21:37;101092.56;;;14.02;70.40
5966;BME280;3009;43.224;27.976;2023-05-10T12:24:05;101095.97;;;13.14;73.42
5966;BME280;3009;43.224;27.976;2023-05-10T12:26:35;101092.00;;;12.88;76.57
5966;BME280;3009;43.224;27.976;2023-05-10T12:29:16;101088.19;;;12.67;78.31
5966;BME280;3009;43.224;27.976;2023-05-10T12:31:52;101087.47;;;12.75;76.66
5966;BME280;3009;43.224;27.976;2023-05-10T12:34:29;101079.31;;;12.89;76.84
5966;BME280;3009;43.224;27.976;2023-05-10T12:36:58;101074.47;;;13.00;75.61
5966;BME280;3009;43.224;27.976;2023-05-10T12:39:41;101072.16;;;13.07;75.77
5966;BME280;3009;43.224;27.976;2023-05-10T12:42:10;101067.53;;;12.99;74.44
5966;BME280;3009;43.224;27.976;2023-05-10T12:44:40;101064.00;;;12.89;72.81
5966;BME280;3009;43.224;27.976;2023-05-10T12:47:08;101071.06;;;12.85;74.84
5966;BME280;3009;43.224;27.976;2023-05-10T12:49:37;101064.72;;;12.81;74.75
5966;BME280;3009;43.224;27.976;2023-05-10T12:52:06;101066.53;;;12.72;72.69
5966;BME280;3009;43.224;27.976;2023-05-10T12:54:34;101069.47;;;12.84;73.11
5966;BME280;3009;43.224;27.976;2023-05-10T12:57:03;101073.59;;;12.45;71.35
5966;BME280;3009;43.224;27.976;2023-05-10T12:59:31;101064.47;;;12.69;71.97
5966;BME280;3009;43.224;27.976;2023-05-10T13:02:04;101064.78;;;12.67;71.61
5966;BME280;3009;43.224;27.976;2023-05-10T13:04:33;101059.94;;;12.78;72.85
5966;BME280;3009;43.224;27.976;2023-05-10T13:07:04;101058.34;;;13.00;71.20
5966;BME280;3009;43.224;27.976;2023-05-10T13:09:32;101045.31;;;12.93;73.27
5966;BME280;3009;43.224;27.976;2023-05-10T13:12:01;101050.63;;;13.07;73.82
5966;BME280;3009;43.224;27.976;2023-05-10T13:14:30;101057.13;;;13.06;73.81
5966;BME280;3009;43.224;27.976;2023-05-10T13:16:59;101065.22;;;12.83;75.27
5966;BME280;3009;43.224;27.976;2023-05-10T13:19:29;101056.00;;;12.39;78.40
5966;BME280;3009;43.224;27.976;2023-05-10T13:21:57;101052.72;;;12.65;78.61
5966;BME280;3009;43.224;27.976;2023-05-10T13:24:25;101056.38;;;12.91;76.68
5966;BME280;3009;43.224;27.976;2023-05-10T13:26:54;101048.06;;;13.02;77.41
5966;BME280;3009;43.224;27.976;2023-05-10T13:29:22;101049.78;;;12.75;76.84
5966;BME280;3009;43.224;27.976;2023-05-10T13:31:51;101053.19;;;12.44;78.40
5966;BME280;3009;43.224;27.976;2023-05-10T13:34:19;101052.84;;;12.23;80.60
5966;BME280;3009;43.224;27.976;2023-05-10T13:36:49;101048.03;;;12.34;78.88
5966;BME280;3009;43.224;27.976;2023-05-10T13:39:18;101052.09;;;12.68;78.13
5966;BME280;3009;43.224;27.976;2023-05-10T13:41:46;101046.94;;;12.57;79.18
5966;BME280;3009;43.224;27.976;2023-05-10T13:44:15;101044.88;;;12.54;80.64
5966;BME280;3009;43.224;27.976;2023-05-10T13:46:43;101038.72;;;12.54;83.79
5966;BME280;3009;43.224;27.976;2023-05-10T13:49:12;101044.78;;;12.59;81.10
5966;BME280;3009;43.224;27.976;2023-05-10T13:51:40;101041.44;;;12.40;80.72
5966;BME280;3009;43.224;27.976;2023-05-10T13:54:10;101042.06;;;12.37;81.50
5966;BME280;3009;43.224;27.976;2023-05-10T13:56:39;101044.19;;;12.26;81.21
5966;BME280;3009;43.224;27.976;2023-05-10T13:59:09;101039.47;;;12.32;82.41
5966;BME280;3009;43.224;27.976;2023-05-10T14:01:37;101035.13;;;12.22;80.34
5966;BME280;3009;43.224;27.976;2023-05-10T14:04:06;101027.19;;;12.03;80.14
5966;BME280;3009;43.224;27.976;2023-05-10T14:06:37;101037.81;;;12.22;79.27
5966;BME280;3009;43.224;27.976;2023-05-10T14:09:05;101038.16;;;12.07;80.25
5966;BME280;3009;43.224;27.976;2023-05-10T14:11:35;101042.00;;;12.14;81.72
5966;BME280;3009;43.224;27.976;2023-05-10T14:14:04;101039.94;;;12.11;82.11
5966;BME280;3009;43.224;27.976;2023-05-10T14:16:32;101038.59;;;12.22;82.30
5966;BME280;3009;43.224;27.976;2023-05-10T14:19:01;101036.28;;;12.30;80.02
5966;BME280;3009;43.224;27.976;2023-05-10T14:21:29;101045.31;;;12.48;80.54
5966;BME280;3009;43.224;27.976;2023-05-10T14:23:58;101044.38;;;12.30;79.54
5966;BME280;3009;43.224;27.976;2023-05-10T14:26:26;101036.94;;;12.13;78.24
5966;BME280;3009;43.224;27.976;2023-05-10T14:28:56;101036.34;;;12.16;79.44
5966;BME280;3009;43.224;27.976;2023-05-10T14:31:25;101032.69;;;11.98;77.62